Time;durP1;ratioP1;P1;durP2;ratioP2;P2;SDS_P1;SDS_P2;PMS_P1;PMS_P2;Temp;Humidity;BMP_temperature;BMP_pressure;BME280_temperature;BME280_humidity;BME280_pressure;Samples;Min_cycle;Max_cycle;Signal;HPM_P1;HPM_P2
2023/08/21 00:02:20;;;;;;;;;1.50;1.50;;;;;23.30;52.36;101832.97;5098920;27;45535;-73
2023/08/21 00:04:45;;;;;;;;;1.25;0.25;;;;;23.41;52.63;101857.84;5098906;27;45496;-70
2023/08/21 00:07:11;;;;;;;;;1.00;1.00;;;;;23.40;52.29;101861.59;5099567;27;45694;-70
2023/08/21 00:09:37;;;;;;;;;0.50;0.25;;;;;23.04;52.73;101793.00;5099730;27;45482;-70
2023/08/21 00:12:02;;;;;;;;;3.00;2.25;;;;;23.48;52.30;101861.47;5100011;27;45350;-70
2023/08/21 00:14:28;;;;;;;;;1.50;1.25;;;;;23.43;52.23;101853.09;5099002;27;45508;-70
2023/08/21 00:16:53;;;;;;;;;1.25;1.25;;;;;23.37;52.08;101852.00;5097927;27;46329;-69
2023/08/21 00:19:18;;;;;;;;;1.00;1.00;;;;;23.34;52.16;101855.97;5099496;27;45201;-69
2023/08/21 00:21:44;;;;;;;;;1.25;1.00;;;;;23.28;52.58;101842.38;5098575;27;45434;-69
2023/08/21 00:24:09;;;;;;;;;1.00;1.00;;;;;23.23;52.58;101823.97;5099959;27;45192;-70
2023/08/21 00:26:34;;;;;;;;;1.00;1.00;;;;;23.30;52.52;101849.25;5099700;27;46820;-70
2023/08/21 00:29:00;;;;;;;;;0.00;0.00;;;;;23.27;52.34;101844.25;5098356;27;45285;-71
2023/08/21 00:31:25;;;;;;;;;0.75;0.75;;;;;23.29;52.49;101839.44;5097929;27;45285;-71
2023/08/21 00:33:50;;;;;;;;;1.00;1.00;;;;;23.33;52.07;101832.56;5099773;27;45385;-71
2023/08/21 00:36:16;;;;;;;;;0.25;0.25;;;;;23.34;52.17;101845.09;5099208;27;45693;-70
2023/08/21 00:38:41;;;;;;;;;2.00;2.00;;;;;23.18;51.83;101817.47;5099355;27;45442;-70
2023/08/21 00:41:06;;;;;;;;;1.00;1.00;;;;;23.04;51.84;101792.16;5099477;27;45302;-71
2023/08/21 00:43:32;;;;;;;;;0.25;0.25;;;;;23.19;52.10;101817.25;5098175;27;45243;-70
2023/08/21 00:45:57;;;;;;;;;1.00;1.00;;;;;23.29;52.45;101842.16;5099088;27;45670;-68
2023/08/21 00:48:23;;;;;;;;;1.00;1.00;;;;;23.30;52.19;101837.56;5097833;27;45327;-70
2023/08/21 00:50:49;;;;;;;;;0.00;0.00;;;;;23.26;51.62;101833.59;5099309;27;45280;-70
2023/08/21 00:53:15;;;;;;;;;1.00;1.00;;;;;23.33;52.06;101842.59;5099342;27;45379;-71
2023/08/21 00:55:41;;;;;;;;;0.00;0.00;;;;;23.27;51.81;101832.56;5098934;27;45650;-70
2023/08/21 00:58:10;;;;;;;;;1.25;1.25;;;;;23.27;51.61;101841.53;5099108;27;45548;-70
2023/08/21 01:00:36;;;;;;;;;1.00;1.00;;;;;23.21;51.90;101825.19;5098966;27;45227;-71
2023/08/21 01:03:01;;;;;;;;;1.75;0.75;;;;;22.71;51.52;101773.78;5097743;27;45409;-71
2023/08/21 01:05:26;;;;;;;;;1.00;1.00;;;;;22.73;51.95;101792.56;5098644;27;54398;-70
2023/08/21 01:07:59;;;;;;;;;0.50;0.50;;;;;22.97;52.15;101856.34;5098995;27;45231;-69
2023/08/21 01:10:58;;;;;;;;;1.00;1.00;;;;;23.00;52.30;101853.25;5099082;27;45227;-70
2023/08/21 01:13:29;;;;;;;;;2.50;1.50;;;;;23.05;52.53;101861.66;5099063;27;45447;-69
2023/08/21 01:15:56;;;;;;;;;1.75;1.75;;;;;22.98;52.12;101833.63;5098371;27;46846;-70
2023/08/21 01:18:22;;;;;;;;;2.00;2.00;;;;;22.78;52.34;101831.59;5098495;27;45448;-70
2023/08/21 01:20:48;;;;;;;;;1.00;1.00;;;;;22.85;52.35;101838.97;5098888;27;45426;-69
2023/08/21 01:23:38;;;;;;;;;1.00;1.00;;;;;22.82;52.28;101852.91;5098996;27;45248;-69
2023/08/21 01:26:04;;;;;;;;;0.75;0.75;;;;;22.72;52.38;101836.97;5098566;27;46647;-69
2023/08/21 01:28:34;;;;;;;;;1.00;1.00;;;;;22.75;52.55;101840.13;5098556;27;45433;-71
2023/08/21 01:31:14;;;;;;;;;1.00;1.00;;;;;22.75;52.70;101848.25;5097074;27;45369;-71
2023/08/21 01:33:53;;;;;;;;;0.75;0.75;;;;;22.68;52.82;101844.66;5098998;27;45497;-70
2023/08/21 01:36:20;;;;;;;;;1.50;1.50;;;;;22.53;52.64;101840.38;5098307;27;45936;-70
2023/08/21 01:38:46;;;;;;;;;2.25;2.00;;;;;22.70;52.81;101863.44;5098220;27;45274;-70
2023/08/21 01:41:12;;;;;;;;;1.75;1.00;;;;;22.71;52.93;101862.41;5098466;27;45284;-70
2023/08/21 01:43:37;;;;;;;;;3.00;2.00;;;;;22.72;52.60;101862.22;5098910;27;45488;-71
2023/08/21 01:46:03;;;;;;;;;1.00;1.00;;;;;22.59;52.50;101856.66;5098040;27;46457;-70
2023/08/21 01:48:28;;;;;;;;;2.50;2.50;;;;;22.56;52.45;101850.81;5098033;27;45401;-70
2023/08/21 01:50:54;;;;;;;;;2.00;2.00;;;;;22.63;52.59;101867.97;5098553;27;45179;-69
2023/08/21 01:53:19;;;;;;;;;1.00;1.00;;;;;22.57;52.57;101868.75;5097556;27;55894;-70
2023/08/21 01:55:44;;;;;;;;;1.00;1.00;;;;;22.37;53.23;101858.56;5098173;27;46538;-70
2023/08/21 01:58:10;;;;;;;;;1.75;0.00;;;;;22.41;53.56;101864.44;5096194;27;59772;-70
2023/08/21 02:00:35;;;;;;;;;3.00;1.00;;;;;22.25;53.31;101838.47;5098237;27;45302;-71
2023/08/21 02:03:00;;;;;;;;;2.00;2.00;;;;;22.36;53.53;101858.75;5097921;27;45398;-70
2023/08/21 02:05:25;;;;;;;;;3.00;2.00;;;;;22.09;53.79;101812.47;5097110;27;69067;-70
2023/08/21 02:07:51;;;;;;;;;2.50;1.00;;;;;22.32;53.55;101844.78;5098073;27;45417;-70
2023/08/21 02:10:16;;;;;;;;;1.00;1.00;;;;;22.12;53.50;101805.81;5096444;27;48840;-70
2023/08/21 02:12:42;;;;;;;;;3.50;2.00;;;;;22.36;53.13;101856.06;5096648;27;45291;-69
2023/08/21 02:15:07;;;;;;;;;1.00;1.00;;;;;22.35;53.60;101855.22;5097787;27;45471;-70
2023/08/21 02:17:33;;;;;;;;;1.25;1.00;;;;;22.27;53.64;101835.56;5097566;27;45175;-70
2023/08/21 02:19:58;;;;;;;;;1.75;1.50;;;;;22.39;53.44;101867.34;5097751;27;45346;-70
2023/08/21 02:22:23;;;;;;;;;1.00;1.00;;;;;22.38;53.85;101862.94;5098082;27;45380;-70
2023/08/21 02:24:49;;;;;;;;;3.00;1.50;;;;;22.36;53.31;101856.06;5097074;27;62112;-69
2023/08/21 02:27:14;;;;;;;;;1.00;1.00;;;;;22.03;53.48;101794.28;5096002;27;46092;-69
2023/08/21 02:29:39;;;;;;;;;2.00;2.00;;;;;22.38;53.31;101860.25;5097677;27;45377;-69
2023/08/21 02:32:05;;;;;;;;;1.25;1.00;;;;;21.44;53.65;101699.78;5096519;27;45559;-70
2023/08/21 02:34:30;;;;;;;;;2.25;1.00;;;;;22.01;53.79;101792.75;5097536;27;46746;-70
2023/08/21 02:36:55;;;;;;;;;0.25;0.25;;;;;22.30;53.73;101846.84;5097734;27;45298;-70
2023/08/21 02:39:21;;;;;;;;;2.50;2.00;;;;;22.26;53.74;101836.59;5096245;27;45548;-69
2023/08/21 02:41:46;;;;;;;;;3.00;2.00;;;;;22.20;54.07;101831.94;5097832;27;45578;-70
2023/08/21 02:44:11;;;;;;;;;2.00;2.00;;;;;21.96;53.76;101796.06;5096456;27;47892;-70
2023/08/21 02:46:37;;;;;;;;;1.50;1.50;;;;;21.97;53.87;101803.16;5097064;27;45331;-71
2023/08/21 02:49:02;;;;;;;;;1.50;1.00;;;;;22.11;54.06;101837.50;5097612;27;45285;-70
2023/08/21 02:51:28;;;;;;;;;2.00;2.00;;;;;22.17;53.99;101852.97;5097682;27;45293;-70
2023/08/21 02:53:53;;;;;;;;;1.00;1.00;;;;;22.16;54.27;101843.16;5095806;27;48030;-71
2023/08/21 02:56:19;;;;;;;;;2.25;2.25;;;;;22.20;54.07;101850.91;5097280;27;45531;-70
2023/08/21 02:58:44;;;;;;;;;1.00;1.00;;;;;22.25;54.21;101845.75;5096158;27;45262;-70
2023/08/21 03:01:10;;;;;;;;;2.25;2.25;;;;;22.26;53.92;101858.28;5095982;27;45341;-70
2023/08/21 03:03:35;;;;;;;;;1.00;1.00;;;;;22.22;54.16;101843.41;5097209;27;45583;-69
2023/08/21 03:06:01;;;;;;;;;2.75;1.25;;;;;22.31;54.05;101863.94;5095919;27;45291;-68
2023/08/21 03:08:27;;;;;;;;;1.50;1.50;;;;;21.99;53.93;101787.53;5097243;27;45410;-71
2023/08/21 03:10:52;;;;;;;;;1.25;1.25;;;;;22.31;53.91;101831.44;5097629;27;45200;-71
2023/08/21 03:13:17;;;;;;;;;3.25;2.00;;;;;22.37;53.95;101844.19;5095700;27;47607;-71
2023/08/21 03:15:43;;;;;;;;;2.25;1.75;;;;;22.38;53.94;101849.41;5096981;27;45507;-69
2023/08/21 03:18:08;;;;;;;;;3.00;2.00;;;;;22.33;54.02;101851.03;5095761;27;45302;-68
2023/08/21 03:20:33;;;;;;;;;3.00;3.00;;;;;22.15;54.16;101838.78;5097325;27;45202;-70
2023/08/21 03:22:59;;;;;;;;;2.00;2.00;;;;;21.96;54.13;101806.88;5112833;27;47396;-71
2023/08/21 03:25:24;;;;;;;;;2.00;2.00;;;;;22.28;53.95;101848.06;5097275;27;45346;-71
2023/08/21 03:27:49;;;;;;;;;5.50;4.00;;;;;22.30;54.15;101846.00;5097301;27;45486;-69
2023/08/21 03:30:15;;;;;;;;;2.50;2.25;;;;;22.25;54.12;101843.88;5096475;27;55887;-71
2023/08/21 03:32:41;;;;;;;;;2.25;2.25;;;;;22.23;54.39;101847.81;5095138;27;48115;-71
2023/08/21 03:35:07;;;;;;;;;5.75;3.00;;;;;22.32;54.00;101866.44;5096906;27;45307;-71
2023/08/21 03:37:32;;;;;;;;;4.75;4.75;;;;;22.10;54.04;101824.16;5097236;27;45309;-71
2023/08/21 03:39:57;;;;;;;;;6.50;5.50;;;;;22.34;54.23;101858.13;5099056;27;45501;-72
2023/08/21 03:42:22;;;;;;;;;5.00;5.00;;;;;22.39;53.90;101866.50;5100262;27;45685;-69
2023/08/21 03:44:49;;;;;;;;;6.75;6.75;;;;;22.14;54.26;101811.88;5100234;27;45523;-69
2023/08/21 03:47:16;;;;;;;;;7.00;7.00;;;;;22.41;53.83;101856.31;5100183;27;45417;-70
2023/08/21 03:49:41;;;;;;;;;5.25;5.25;;;;;22.45;53.65;101868.44;5099169;27;45566;-69
2023/08/21 03:52:06;;;;;;;;;5.75;5.75;;;;;22.50;53.56;101874.13;5100149;27;46350;-70
2023/08/21 03:54:32;;;;;;;;;2.50;2.50;;;;;22.44;53.77;101870.31;5099961;27;45444;-69
2023/08/21 03:56:57;;;;;;;;;7.50;4.50;;;;;22.39;53.35;101856.50;5100302;27;45410;-71
2023/08/21 03:59:23;;;;;;;;;4.50;3.75;;;;;22.19;53.12;101814.00;5100596;27;45477;-70
2023/08/21 04:01:49;;;;;;;;;3.00;2.00;;;;;22.49;53.52;101864.31;5099435;27;45888;-69
2023/08/21 04:04:14;;;;;;;;;1.75;1.75;;;;;22.34;53.20;101850.84;5099640;27;49121;-69
2023/08/21 04:06:40;;;;;;;;;0.00;0.00;;;;;22.41;53.30;101864.44;5099804;27;45397;-69
2023/08/21 04:09:06;;;;;;;;;2.00;2.00;;;;;22.08;53.61;101799.13;5100326;27;45297;-70
2023/08/21 04:11:32;;;;;;;;;2.50;1.50;;;;;22.05;53.60;101807.66;5099649;27;45571;-70
2023/08/21 04:13:58;;;;;;;;;2.25;2.25;;;;;22.26;53.44;101861.81;5099855;27;45419;-69
2023/08/21 04:16:24;;;;;;;;;1.00;1.00;;;;;22.15;54.06;101852.31;5099643;27;45308;-70
2023/08/21 04:18:49;;;;;;;;;4.50;2.00;;;;;22.23;53.64;101855.94;5098348;27;45538;-70
2023/08/21 04:21:15;;;;;;;;;1.25;1.25;;;;;22.24;53.41;101861.19;5099352;27;46311;-69
2023/08/21 04:23:40;;;;;;;;;2.00;2.00;;;;;22.10;53.59;101852.06;5099701;27;45281;-70
2023/08/21 04:26:07;;;;;;;;;1.75;1.00;;;;;21.92;53.73;101835.38;5099868;27;45191;-70
2023/08/21 04:28:33;;;;;;;;;3.00;1.00;;;;;22.14;53.56;101869.59;5098532;27;45485;-69
2023/08/21 04:30:59;;;;;;;;;5.00;2.00;;;;;22.06;53.49;101861.63;5099161;27;45622;-71
2023/08/21 04:33:26;;;;;;;;;2.00;2.00;;;;;22.05;54.04;101865.34;5099573;27;45373;-70
2023/08/21 04:35:52;;;;;;;;;1.75;1.75;;;;;22.00;53.37;101865.03;5099323;27;45310;-70
2023/08/21 04:38:17;;;;;;;;;1.00;1.00;;;;;21.92;53.78;101876.00;5098169;27;45542;-70
2023/08/21 04:40:42;;;;;;;;;3.25;3.00;;;;;21.81;53.86;101885.44;5097857;27;46586;-70
2023/08/21 04:43:08;;;;;;;;;2.75;1.25;;;;;21.75;54.19;101883.50;5098870;27;56191;-70
2023/08/21 04:45:33;;;;;;;;;3.50;2.50;;;;;21.56;53.71;101847.03;5099277;27;45365;-71
2023/08/21 04:47:58;;;;;;;;;2.00;1.00;;;;;21.79;54.07;101886.66;5099179;27;45315;-72
2023/08/21 04:50:23;;;;;;;;;4.75;2.50;;;;;21.81;54.01;101892.72;5096844;27;59306;-70
2023/08/21 04:52:50;;;;;;;;;1.00;1.00;;;;;21.78;53.78;101885.81;5098793;27;45368;-72
2023/08/21 04:55:16;;;;;;;;;0.00;0.00;;;;;21.67;54.00;101883.63;5099126;27;45403;-70
2023/08/21 04:57:41;;;;;;;;;1.00;1.00;;;;;21.40;54.00;101838.28;5099286;27;45340;-70
2023/08/21 05:00:07;;;;;;;;;1.00;1.00;;;;;21.67;54.08;101890.91;5098505;27;46809;-70
2023/08/21 05:02:33;;;;;;;;;0.50;0.00;;;;;21.29;54.00;101834.22;5098497;27;45262;-70
2023/08/21 05:04:59;;;;;;;;;1.00;1.00;;;;;21.65;54.07;101901.09;5097535;27;45232;-71
2023/08/21 05:07:24;;;;;;;;;3.00;1.75;;;;;21.22;54.54;101841.34;5099479;27;45489;-72
2023/08/21 05:09:49;;;;;;;;;1.00;1.00;;;;;21.63;54.57;101897.72;5098703;27;46739;-70
2023/08/21 05:12:15;;;;;;;;;3.25;1.00;;;;;21.64;54.62;101911.06;5098639;27;45545;-70
2023/08/21 05:14:40;;;;;;;;;1.00;1.00;;;;;21.42;54.16;101866.84;5099083;27;45458;-70
2023/08/21 05:17:05;;;;;;;;;0.50;0.25;;;;;21.37;54.33;101847.63;5098380;27;45228;-70
2023/08/21 05:19:31;;;;;;;;;4.50;2.25;;;;;21.74;54.12;101910.75;5098334;27;55249;-70
2023/08/21 05:21:56;;;;;;;;;2.75;1.25;;;;;21.70;53.94;101901.34;5097250;27;45376;-70
2023/08/21 05:24:21;;;;;;;;;4.25;2.25;;;;;21.62;54.18;101902.28;5098893;27;45560;-71
2023/08/21 05:26:46;;;;;;;;;3.00;1.75;;;;;21.52;54.25;101897.16;5098724;27;45308;-70
2023/08/21 05:29:12;;;;;;;;;0.75;0.75;;;;;21.49;54.80;101908.38;5098222;27;45273;-71
2023/08/21 05:31:37;;;;;;;;;0.00;0.00;;;;;21.55;55.00;101909.47;5097710;27;58713;-71
2023/08/21 05:34:03;;;;;;;;;2.50;1.50;;;;;21.62;54.19;101912.25;5096988;27;45430;-71
2023/08/21 05:36:28;;;;;;;;;2.75;1.75;;;;;21.66;54.54;101913.59;5098531;27;45299;-71
2023/08/21 05:38:54;;;;;;;;;1.00;1.00;;;;;21.70;54.27;101907.59;5098069;27;45338;-71
2023/08/21 05:41:19;;;;;;;;;1.25;1.25;;;;;21.71;53.91;101905.75;5098166;27;45355;-71
2023/08/21 05:43:45;;;;;;;;;1.00;1.00;;;;;21.70;53.88;101907.59;5096996;27;45537;-71
2023/08/21 05:46:11;;;;;;;;;1.00;1.00;;;;;21.69;53.41;101905.09;5097886;27;45648;-70
2023/08/21 05:48:36;;;;;;;;;3.50;2.50;;;;;21.60;53.39;101887.25;5098101;27;45833;-71
2023/08/21 05:51:01;;;;;;;;;1.00;1.00;;;;;21.77;53.37;101922.03;5098314;27;45391;-70
2023/08/21 05:53:27;;;;;;;;;1.00;0.25;;;;;21.82;52.80;101913.34;5098328;27;45580;-70
2023/08/21 05:55:53;;;;;;;;;0.50;0.50;;;;;21.54;53.04;101868.06;5097169;27;45584;-71
2023/08/21 05:58:19;;;;;;;;;1.50;1.00;;;;;21.55;52.87;101861.59;5098232;27;45931;-70
2023/08/21 06:00:44;;;;;;;;;1.50;1.00;;;;;21.88;52.71;101918.03;5096924;27;45491;-70
2023/08/21 06:03:10;;;;;;;;;0.25;0.25;;;;;21.91;52.31;101923.06;5096783;27;45594;-70
2023/08/21 06:05:35;;;;;;;;;0.75;0.75;;;;;21.85;52.78;101913.84;5098077;27;45340;-70
2023/08/21 06:08:01;;;;;;;;;1.00;1.00;;;;;21.82;52.35;101907.94;5096603;27;47155;-72
2023/08/21 06:10:26;;;;;;;;;0.75;0.75;;;;;21.94;53.04;101922.69;5097727;27;45483;-71
2023/08/21 06:12:51;;;;;;;;;1.00;1.00;;;;;22.01;52.75;101929.00;5097718;27;45403;-71
2023/08/21 06:15:17;;;;;;;;;2.00;1.00;;;;;22.04;52.66;101923.25;5096700;27;45572;-72
2023/08/21 06:17:42;;;;;;;;;2.00;1.00;;;;;21.83;51.90;101882.56;5096987;27;45411;-71
2023/08/21 06:20:09;;;;;;;;;0.00;0.00;;;;;22.16;51.86;101927.13;5095867;27;45612;-70
2023/08/21 06:22:37;;;;;;;;;0.00;0.00;;;;;22.20;51.79;101915.91;5097814;27;45527;-70
2023/08/21 06:25:03;;;;;;;;;1.00;1.00;;;;;22.14;51.61;101923.78;5096354;27;45410;-72
2023/08/21 06:27:29;;;;;;;;;1.00;1.00;;;;;22.01;50.88;101896.50;5096977;27;45740;-72
2023/08/21 06:29:54;;;;;;;;;1.50;0.50;;;;;21.89;51.24;101897.22;5097424;27;45409;-72
2023/08/21 06:32:19;;;;;;;;;0.00;0.00;;;;;22.05;51.77;101924.94;5097529;27;45415;-71
2023/08/21 06:34:44;;;;;;;;;1.50;0.75;;;;;22.10;51.97;101927.06;5097567;27;45415;-72
2023/08/21 06:37:10;;;;;;;;;0.00;0.00;;;;;22.30;51.45;101938.13;5097176;27;50508;-69
2023/08/21 06:39:35;;;;;;;;;1.00;1.00;;;;;22.42;50.45;101904.03;5096996;27;55297;-71
2023/08/21 06:42:01;;;;;;;;;0.50;0.00;;;;;23.07;49.12;101919.25;5097031;27;52101;-70
2023/08/21 06:44:26;;;;;;;;;1.00;1.00;;;;;23.64;48.03;101927.16;5097730;27;45289;-70
2023/08/21 06:46:52;;;;;;;;;0.25;0.25;;;;;24.24;46.75;101927.34;5096530;27;58090;-71
2023/08/21 06:49:17;;;;;;;;;1.00;1.00;;;;;24.58;44.88;101907.34;5097205;27;45353;-71
2023/08/21 06:51:43;;;;;;;;;0.75;0.75;;;;;25.20;44.55;101927.00;5097332;27;45678;-71
2023/08/21 06:54:08;;;;;;;;;1.00;0.00;;;;;25.57;43.34;101930.91;5097641;27;45517;-70
2023/08/21 06:56:33;;;;;;;;;1.00;1.00;;;;;25.70;43.05;101885.44;5095639;27;46731;-71
2023/08/21 06:58:59;;;;;;;;;0.50;0.25;;;;;26.31;41.69;101938.56;5097381;27;45479;-70
2023/08/21 07:01:24;;;;;;;;;0.75;0.50;;;;;26.68;40.28;101936.88;5096728;27;45472;-71
2023/08/21 07:03:49;;;;;;;;;0.00;0.00;;;;;27.12;40.20;101921.41;5097352;27;45223;-71
2023/08/21 07:06:15;;;;;;;;;0.75;0.00;;;;;26.59;38.86;101812.72;5096842;27;45398;-70
2023/08/21 07:08:40;;;;;;;;;0.75;0.75;;;;;27.61;39.16;101928.63;5096927;27;45440;-71
2023/08/21 07:11:07;;;;;;;;;1.00;1.00;;;;;27.88;38.67;101921.81;5095516;27;45253;-71
2023/08/21 07:13:33;;;;;;;;;0.75;0.75;;;;;28.13;36.98;101904.44;5099111;27;45419;-70
2023/08/21 07:15:58;;;;;;;;;1.00;1.00;;;;;28.67;36.62;101922.56;5099840;27;45640;-70
2023/08/21 07:18:24;;;;;;;;;0.00;0.00;;;;;29.12;36.61;101932.97;5099855;27;47462;-71
2023/08/21 07:20:52;;;;;;;;;0.00;0.00;;;;;29.37;35.46;101930.81;5101457;27;45441;-71
2023/08/21 07:23:17;;;;;;;;;0.00;0.00;;;;;29.53;34.64;101915.56;5104593;27;45496;-73
2023/08/21 07:25:42;;;;;;;;;0.00;0.00;;;;;29.84;34.34;101916.22;5100358;27;46390;-70
2023/08/21 07:28:09;;;;;;;;;1.75;1.75;;;;;30.10;34.85;101917.56;5106337;27;45393;-70
2023/08/21 07:30:38;;;;;;;;;1.50;1.00;;;;;30.64;34.03;101934.47;5119604;27;45470;-70
2023/08/21 07:33:04;;;;;;;;;1.00;1.00;;;;;30.90;32.87;101920.06;5113494;27;45400;-70
2023/08/21 07:35:29;;;;;;;;;1.50;1.50;;;;;31.27;31.99;101939.59;5098396;27;47694;-71
2023/08/21 07:37:54;;;;;;;;;4.00;1.00;;;;;31.59;31.59;101936.16;5113311;27;68344;-71
2023/08/21 07:40:20;;;;;;;;;0.50;0.50;;;;;31.71;31.55;101912.94;5119181;27;46982;-71
2023/08/21 07:42:45;;;;;;;;;1.25;1.25;;;;;32.17;31.39;101946.50;5101797;27;45339;-69
2023/08/21 07:45:11;;;;;;;;;0.00;0.00;;;;;32.37;29.73;101938.47;5099374;27;61667;-70
2023/08/21 07:47:36;;;;;;;;;2.00;0.00;;;;;31.81;29.72;101900.44;5099405;27;45264;-71
2023/08/21 07:50:01;;;;;;;;;0.75;0.75;;;;;32.06;29.90;101929.06;5098410;27;45240;-70
2023/08/21 07:52:27;;;;;;;;;0.50;0.50;;;;;31.97;29.98;101905.00;5100694;27;45486;-70
2023/08/21 07:54:53;;;;;;;;;1.00;1.00;;;;;32.47;29.14;101948.75;5107936;27;47267;-72
2023/08/21 07:57:18;;;;;;;;;0.00;0.00;;;;;32.41;29.12;101932.44;5101524;27;45382;-73
2023/08/21 07:59:43;;;;;;;;;1.00;0.75;;;;;32.73;29.84;101940.72;5099561;27;45726;-70
2023/08/21 08:02:11;;;;;;;;;0.00;0.00;;;;;33.13;28.77;101935.53;5099164;27;46926;-71
2023/08/21 08:04:37;;;;;;;;;1.00;1.00;;;;;33.34;27.93;101936.50;5107606;27;46340;-72
2023/08/21 08:07:02;;;;;;;;;1.00;1.00;;;;;33.46;28.75;101937.13;5118006;27;45330;-72
2023/08/21 08:09:27;;;;;;;;;5.50;5.50;;;;;33.62;27.46;101935.25;5113833;27;45386;-73
2023/08/21 08:11:52;;;;;;;;;0.75;0.75;;;;;33.58;27.55;101932.19;5114459;27;45277;-71
2023/08/21 08:14:18;;;;;;;;;0.00;0.00;;;;;33.38;28.47;101898.19;5114964;27;45421;-71
2023/08/21 08:16:43;;;;;;;;;4.00;2.00;;;;;33.86;28.80;101946.69;5098741;27;45458;-72
2023/08/21 08:19:09;;;;;;;;;0.00;0.00;;;;;34.23;27.58;101953.94;5098903;27;45883;-70
2023/08/21 08:21:34;;;;;;;;;0.00;0.00;;;;;34.35;27.48;101935.22;5099457;27;45245;-70
2023/08/21 08:23:59;;;;;;;;;1.00;1.00;;;;;34.52;27.11;101929.44;5099256;27;64892;-71
2023/08/21 08:26:24;;;;;;;;;2.00;0.50;;;;;34.16;26.90;101844.63;5119421;27;45533;-71
2023/08/21 08:28:50;;;;;;;;;0.00;0.00;;;;;34.72;26.55;101944.06;5120014;27;45464;-76
2023/08/21 08:31:18;;;;;;;;;4.33;4.33;;;;;34.37;27.78;101946.81;5099061;27;45319;-72
2023/08/21 08:33:44;;;;;;;;;3.00;1.00;;;;;34.60;27.65;101946.28;5099048;27;46437;-74
2023/08/21 08:36:10;;;;;;;;;2.00;1.00;;;;;34.55;27.40;101926.94;5099107;27;45444;-70
2023/08/21 08:38:36;;;;;;;;;1.00;1.00;;;;;34.96;27.56;101938.81;5111402;27;45549;-68
2023/08/21 08:41:05;;;;;;;;;2.67;1.67;;;;;35.38;26.28;101936.81;5099076;27;45322;-68
2023/08/21 08:43:34;;;;;;;;;1.50;1.00;;;;;35.55;25.92;101902.19;5098810;27;46466;-69
2023/08/21 08:46:00;;;;;;;;;1.75;1.00;;;;;36.16;25.44;101937.00;5098366;27;45492;-70
2023/08/21 08:48:26;;;;;;;;;0.50;0.50;;;;;36.25;25.29;101930.59;5098831;27;45296;-69
2023/08/21 08:50:52;;;;;;;;;3.67;1.67;;;;;36.44;25.11;101922.44;5103067;27;45505;-70
2023/08/21 08:53:19;;;;;;;;;2.00;1.00;;;;;36.36;24.53;101875.97;5098384;27;46844;-71
2023/08/21 08:55:45;;;;;;;;;0.00;0.00;;;;;36.59;24.72;101924.22;5098853;27;45285;-71
2023/08/21 08:58:10;;;;;;;;;2.00;1.00;;;;;36.66;24.95;101929.47;5097567;27;45383;-71
2023/08/21 09:00:37;;;;;;;;;0.00;0.00;;;;;36.59;24.58;101917.88;5101250;27;45502;-70
2023/08/21 09:03:03;;;;;;;;;0.50;0.50;;;;;36.96;24.49;101929.19;5098474;27;46681;-71
2023/08/21 09:05:28;;;;;;;;;2.00;1.00;;;;;37.11;23.81;101912.38;5098217;27;45660;-70
2023/08/21 09:08:13;;;;;;;;;1.33;1.00;;;;;37.26;23.58;101921.69;5097139;27;45479;-69
2023/08/21 09:10:41;;;;;;;;;3.00;1.33;;;;;37.65;23.61;101919.53;5099848;27;45539;-71
2023/08/21 09:13:12;;;;;;;;;1.33;1.33;;;;;38.04;23.39;101927.56;5110947;27;47355;-70
2023/08/21 09:15:37;;;;;;;;;0.67;0.67;;;;;38.40;22.78;101920.66;5102428;27;45765;-69
2023/08/21 09:18:03;;;;;;;;;1.00;1.00;;;;;38.54;22.13;101883.47;5105146;27;45520;-69
2023/08/21 09:20:34;;;;;;;;;2.33;2.00;;;;;39.14;21.60;101908.53;5098637;27;45320;-69
2023/08/21 09:23:00;;;;;;;;;1.00;1.00;;;;;39.80;21.88;101907.13;5077775;28;46872;-69
2023/08/21 09:25:26;;;;;;;;;1.00;1.00;;;;;40.56;20.21;101868.25;5077771;27;45284;-69
2023/08/21 09:27:55;;;;;;;;;1.00;1.00;;;;;41.68;19.71;101908.91;5076566;27;45522;-70
2023/08/21 09:30:20;;;;;;;;;1.00;1.00;;;;;42.81;18.71;101913.25;5090420;27;45485;-69
2023/08/21 09:32:56;;;;;;;;;1.33;1.33;;;;;43.79;18.02;101902.88;5097666;27;46308;-69
2023/08/21 09:35:23;;;;;;;;;3.67;2.00;;;;;44.40;16.97;101900.38;5096927;27;45270;-69
2023/08/21 09:37:48;;;;;;;;;2.00;2.00;;;;;45.18;16.69;101911.50;5100158;27;45366;-70
2023/08/21 09:40:15;;;;;;;;;1.67;1.67;;;;;45.97;15.70;101895.91;5099508;27;45367;-69
2023/08/21 09:42:41;;;;;;;;;1.67;1.67;;;;;46.63;15.50;101901.00;5098026;27;46687;-70
2023/08/21 09:45:07;;;;;;;;;1.33;1.33;;;;;46.88;14.15;101903.69;5101349;27;45395;-70
2023/08/21 09:47:33;;;;;;;;;1.33;1.33;;;;;46.61;15.53;101891.28;5104616;27;45586;-70
2023/08/21 09:49:59;;;;;;;;;0.33;0.33;;;;;46.86;14.62;101883.53;5098252;27;45396;-69
2023/08/21 09:52:26;;;;;;;;;2.00;0.67;;;;;47.20;14.20;101894.00;5077116;27;45787;-70
2023/08/21 09:54:55;;;;;;;;;0.67;0.67;;;;;47.32;14.36;101897.91;5077331;27;45285;-71
2023/08/21 09:57:22;;;;;;;;;1.33;0.33;;;;;47.60;14.35;101892.09;5105038;27;45515;-75
2023/08/21 09:59:52;;;;;;;;;2.00;0.67;;;;;47.35;14.07;101889.53;5117105;27;45486;-69
2023/08/21 10:02:18;;;;;;;;;2.67;1.67;;;;;47.39;13.98;101895.25;5117852;27;45299;-70
2023/08/21 10:04:45;;;;;;;;;1.33;0.67;;;;;46.37;14.76;101889.41;5101093;27;45912;-70
2023/08/21 10:07:12;;;;;;;;;3.00;2.00;;;;;46.38;15.11;101894.72;5097559;27;45421;-69
2023/08/21 10:09:41;;;;;;;;;2.00;2.00;;;;;46.30;14.92;101898.50;5096281;27;45397;-69
2023/08/21 10:12:09;;;;;;;;;2.00;0.67;;;;;45.79;15.21;101894.59;5097171;27;45912;-69
2023/08/21 10:14:36;;;;;;;;;2.00;2.00;;;;;44.86;15.92;101879.56;5096209;27;45436;-70
2023/08/21 10:17:01;;;;;;;;;0.00;0.00;;;;;44.35;16.98;101883.75;5094755;27;45555;-70
2023/08/21 10:19:34;;;;;;;;;1.00;1.00;;;;;43.61;16.83;101885.38;5102615;27;45567;-70
2023/08/21 10:21:59;;;;;;;;;4.67;2.67;;;;;42.04;18.46;101845.13;5097667;27;46158;-70
2023/08/21 10:24:33;;;;;;;;;1.00;1.00;;;;;41.31;19.63;101863.66;5101002;27;45544;-69
2023/08/21 10:26:59;;;;;;;;;2.67;1.00;;;;;40.52;20.40;101883.97;5097196;27;45303;-70
2023/08/21 10:29:26;;;;;;;;;2.67;1.00;;;;;38.99;21.85;101825.34;5097879;27;45469;-70
2023/08/21 10:32:02;;;;;;;;;2.33;2.33;;;;;38.27;22.39;101870.34;5109565;27;45685;-70
2023/08/21 10:34:37;;;;;;;;;2.67;2.00;;;;;37.32;23.21;101821.47;5112157;27;45453;-70
2023/08/21 10:37:09;;;;;;;;;1.00;1.00;;;;;36.40;24.63;101871.47;5104779;27;45366;-71
2023/08/21 10:39:37;;;;;;;;;1.00;1.00;;;;;35.46;25.42;101851.34;5104055;27;45441;-70
2023/08/21 10:42:13;;;;;;;;;2.33;2.33;;;;;34.57;26.76;101860.38;5103389;27;45825;-70
2023/08/21 10:44:51;;;;;;;;;3.00;2.00;;;;;34.05;28.08;101864.22;5097580;27;45485;-70
2023/08/21 10:47:20;;;;;;;;;3.00;2.00;;;;;33.45;28.26;101865.72;5084161;27;45747;-71
2023/08/21 10:49:47;;;;;;;;;4.67;2.00;;;;;32.89;29.39;101851.63;5090016;27;45439;-71
2023/08/21 10:52:13;;;;;;;;;2.00;2.00;;;;;32.41;29.54;101823.16;5099182;27;45818;-70
2023/08/21 10:54:49;;;;;;;;;4.33;3.00;;;;;31.98;30.03;101824.16;5097768;27;46257;-70
2023/08/21 10:57:15;;;;;;;;;2.67;2.67;;;;;31.56;31.00;101844.03;5098821;27;45401;-69
2023/08/21 11:00:13;;;;;;;;;2.00;2.00;;;;;30.87;31.90;101857.41;5100868;27;45278;-70
2023/08/21 11:02:40;;;;;;;;;2.67;2.67;;;;;30.64;32.63;101843.88;5095343;27;46798;-69
2023/08/21 11:05:07;;;;;;;;;2.00;2.00;;;;;30.42;32.52;101817.13;5100049;27;45636;-72
2023/08/21 11:07:45;;;;;;;;;1.33;1.33;;;;;30.13;33.35;101821.88;5101410;27;46285;-70
2023/08/21 11:10:18;;;;;;;;;0.00;0.00;;;;;30.03;33.70;101848.25;5105516;27;45575;-72
2023/08/21 11:12:59;;;;;;;;;2.50;2.50;;;;;29.77;34.55;101836.81;5104454;27;46368;-71
2023/08/21 11:15:25;;;;;;;;;4.75;4.00;;;;;29.62;35.22;101836.53;5121066;27;45279;-70
2023/08/21 11:18:02;;;;;;;;;4.00;4.00;;;;;29.55;34.73;101849.56;5118134;27;45461;-71
2023/08/21 11:20:32;;;;;;;;;2.67;2.00;;;;;29.51;34.44;101837.41;5112079;27;45546;-73
2023/08/21 11:22:58;;;;;;;;;3.25;2.25;;;;;28.99;35.07;101786.19;5099683;27;45723;-71